sensor_id;sensor_type;location;lat;lon;timestamp;pressure;altitude;pressure_sealevel;temperature
70389;BMP280;58659;49.050;8.530;2022-12-07T00:01:22;99846.53;;;3.61
70389;BMP280;58659;49.050;8.530;2022-12-07T00:03:49;99838.38;;;3.68
70389;BMP280;58659;49.050;8.530;2022-12-07T00:06:17;99839.72;;;3.65
70389;BMP280;58659;49.050;8.530;2022-12-07T00:08:43;99834.53;;;3.65
70389;BMP280;58659;49.050;8.530;2022-12-07T00:11:14;99829.97;;;3.62
70389;BMP280;58659;49.050;8.530;2022-12-07T00:13:40;99826.94;;;3.60
70389;BMP280;58659;49.050;8.530;2022-12-07T00:16:11;99821.06;;;3.68
70389;BMP280;58659;49.050;8.530;2022-12-07T00:18:37;99821.28;;;3.58
70389;BMP280;58659;49.050;8.530;2022-12-07T00:21:09;99819.19;;;3.60
70389;BMP280;58659;49.050;8.530;2022-12-07T00:23:35;99814.66;;;3.66
70389;BMP280;58659;49.050;8.530;2022-12-07T00:26:16;99810.94;;;3.58
70389;BMP280;58659;49.050;8.530;2022-12-07T00:28:48;99819.66;;;3.62
70389;BMP280;58659;49.050;8.530;2022-12-07T00:31:15;99817.06;;;3.62
70389;BMP280;58659;49.050;8.530;2022-12-07T00:33:40;99813.53;;;3.58
70389;BMP280;58659;49.050;8.530;2022-12-07T00:36:09;99818.56;;;3.63
70389;BMP280;58659;49.050;8.530;2022-12-07T00:38:36;99814.44;;;3.54
70389;BMP280;58659;49.050;8.530;2022-12-07T00:41:12;99815.66;;;3.56
70389;BMP280;58659;49.050;8.530;2022-12-07T00:43:40;99810.66;;;3.60
70389;BMP280;58659;49.050;8.530;2022-12-07T00:46:06;99811.97;;;3.49
70389;BMP280;58659;49.050;8.530;2022-12-07T00:48:31;99806.19;;;3.43
70389;BMP280;58659;49.050;8.530;2022-12-07T00:50:56;99805.59;;;3.46
70389;BMP280;58659;49.050;8.530;2022-12-07T00:53:22;99816.53;;;3.43
70389;BMP280;58659;49.050;8.530;2022-12-07T00:55:47;99797.53;;;3.39
70389;BMP280;58659;49.050;8.530;2022-12-07T00:58:13;99791.28;;;3.40
70389;BMP280;58659;49.050;8.530;2022-12-07T01:00:40;99789.78;;;3.39
70389;BMP280;58659;49.050;8.530;2022-12-07T01:03:07;99782.56;;;3.27
70389;BMP280;58659;49.050;8.530;2022-12-07T01:05:33;99775.88;;;3.26
70389;BMP280;58659;49.050;8.530;2022-12-07T01:07:58;99758.69;;;3.22
70389;BMP280;58659;49.050;8.530;2022-12-07T01:10:23;99744.84;;;3.18
70389;BMP280;58659;49.050;8.530;2022-12-07T01:12:49;99739.97;;;3.16
70389;BMP280;58659;49.050;8.530;2022-12-07T01:15:14;99734.38;;;3.23
70389;BMP280;58659;49.050;8.530;2022-12-07T01:17:40;99735.91;;;3.15
70389;BMP280;58659;49.050;8.530;2022-12-07T01:20:05;99734.38;;;3.23
70389;BMP280;58659;49.050;8.530;2022-12-07T01:22:31;99734.56;;;3.26
70389;BMP280;58659;49.050;8.530;2022-12-07T01:24:56;99740.50;;;3.27
70389;BMP280;58659;49.050;8.530;2022-12-07T01:27:21;99742.59;;;3.25
70389;BMP280;58659;49.050;8.530;2022-12-07T01:29:47;99755.38;;;3.30
70389;BMP280;58659;49.050;8.530;2022-12-07T01:32:12;99765.94;;;3.42
70389;BMP280;58659;49.050;8.530;2022-12-07T01:34:37;99773.81;;;3.37
70389;BMP280;58659;49.050;8.530;2022-12-07T01:37:03;99782.03;;;3.39
70389;BMP280;58659;49.050;8.530;2022-12-07T01:39:29;99776.53;;;3.40
70389;BMP280;58659;49.050;8.530;2022-12-07T01:41:54;99788.69;;;3.40
70389;BMP280;58659;49.050;8.530;2022-12-07T01:47:02;99790.19;;;3.32
70389;BMP280;58659;49.050;8.530;2022-12-07T01:54:28;99764.94;;;3.21
70389;BMP280;58659;49.050;8.530;2022-12-07T01:56:56;99757.97;;;3.21
70389;BMP280;58659;49.050;8.530;2022-12-07T01:59:23;99752.03;;;3.29
70389;BMP280;58659;49.050;8.530;2022-12-07T02:01:51;99764.31;;;3.24
70389;BMP280;58659;49.050;8.530;2022-12-07T02:04:18;99766.31;;;3.27
70389;BMP280;58659;49.050;8.530;2022-12-07T02:06:43;99756.44;;;3.29
70389;BMP280;58659;49.050;8.530;2022-12-07T02:09:09;99749.09;;;3.22
70389;BMP280;58659;49.050;8.530;2022-12-07T02:11:35;99750.81;;;3.27
70389;BMP280;58659;49.050;8.530;2022-12-07T02:14:00;99757.06;;;3.34
70389;BMP280;58659;49.050;8.530;2022-12-07T02:22:50;99797.72;;;3.51
70389;BMP280;58659;49.050;8.530;2022-12-07T02:25:53;99795.25;;;3.46
70389;BMP280;58659;49.050;8.530;2022-12-07T02:28:30;99790.50;;;3.39
70389;BMP280;58659;49.050;8.530;2022-12-07T02:31:01;99772.88;;;3.33
70389;BMP280;58659;49.050;8.530;2022-12-07T02:33:41;99769.13;;;3.39
70389;BMP280;58659;49.050;8.530;2022-12-07T02:36:21;99765.56;;;3.35
70389;BMP280;58659;49.050;8.530;2022-12-07T02:39:00;99771.22;;;3.37
70389;BMP280;58659;49.050;8.530;2022-12-07T02:41:31;99765.44;;;3.40
70389;BMP280;58659;49.050;8.530;2022-12-07T02:44:01;99771.78;;;3.34
70389;BMP280;58659;49.050;8.530;2022-12-07T02:46:30;99768.00;;;3.31
70389;BMP280;58659;49.050;8.530;2022-12-07T02:48:57;99752.16;;;3.24
70389;BMP280;58659;49.050;8.530;2022-12-07T02:51:25;99737.91;;;3.27
70389;BMP280;58659;49.050;8.530;2022-12-07T02:53:50;99733.31;;;3.24
70389;BMP280;58659;49.050;8.530;2022-12-07T03:06:42;99707.09;;;3.30
70389;BMP280;58659;49.050;8.530;2022-12-07T03:09:19;99697.38;;;3.27
70389;BMP280;58659;49.050;8.530;2022-12-07T03:12:01;99692.78;;;3.24
70389;BMP280;58659;49.050;8.530;2022-12-07T03:14:39;99693.72;;;3.28
70389;BMP280;58659;49.050;8.530;2022-12-07T03:17:13;99690.38;;;3.28
70389;BMP280;58659;49.050;8.530;2022-12-07T03:19:40;99690.06;;;3.21
70389;BMP280;58659;49.050;8.530;2022-12-07T03:22:11;99688.69;;;3.23
70389;BMP280;58659;49.050;8.530;2022-12-07T03:24:42;99693.84;;;3.23
70389;BMP280;58659;49.050;8.530;2022-12-07T03:27:13;99690.06;;;3.21
70389;BMP280;58659;49.050;8.530;2022-12-07T03:30:08;99705.84;;;3.28
70389;BMP280;58659;49.050;8.530;2022-12-07T03:32:53;99719.66;;;3.23
70389;BMP280;58659;49.050;8.530;2022-12-07T03:35:27;99719.53;;;3.28
70389;BMP280;58659;49.050;8.530;2022-12-07T03:38:13;99724.41;;;3.21
70389;BMP280;58659;49.050;8.530;2022-12-07T03:40:44;99719.53;;;3.20
70389;BMP280;58659;49.050;8.530;2022-12-07T03:43:15;99724.28;;;3.04
70389;BMP280;58659;49.050;8.530;2022-12-07T03:45:44;99726.81;;;2.95
70389;BMP280;58659;49.050;8.530;2022-12-07T03:48:35;99728.91;;;2.85
70389;BMP280;58659;49.050;8.530;2022-12-07T03:53:36;99708.03;;;2.73
70389;BMP280;58659;49.050;8.530;2022-12-07T03:56:04;99694.72;;;2.79
70389;BMP280;58659;49.050;8.530;2022-12-07T03:58:30;99681.09;;;2.87
70389;BMP280;58659;49.050;8.530;2022-12-07T04:00:56;99687.22;;;2.91
70389;BMP280;58659;49.050;8.530;2022-12-07T04:03:21;99682.78;;;2.92
70389;BMP280;58659;49.050;8.530;2022-12-07T04:05:46;99674.31;;;2.91
70389;BMP280;58659;49.050;8.530;2022-12-07T04:08:12;99682.94;;;2.95
70389;BMP280;58659;49.050;8.530;2022-12-07T04:10:37;99680.84;;;2.97
70389;BMP280;58659;49.050;8.530;2022-12-07T04:13:03;99686.75;;;2.98
70389;BMP280;58659;49.050;8.530;2022-12-07T04:15:28;99697.81;;;2.98
70389;BMP280;58659;49.050;8.530;2022-12-07T04:17:54;99701.47;;;2.97
70389;BMP280;58659;49.050;8.530;2022-12-07T04:20:20;99706.16;;;2.95
70389;BMP280;58659;49.050;8.530;2022-12-07T04:22:45;99703.09;;;2.93
70389;BMP280;58659;49.050;8.530;2022-12-07T04:25:10;99692.66;;;2.98
70389;BMP280;58659;49.050;8.530;2022-12-07T04:27:36;99695.25;;;2.98
70389;BMP280;58659;49.050;8.530;2022-12-07T04:30:01;99693.09;;;2.92
70389;BMP280;58659;49.050;8.530;2022-12-07T04:32:27;99685.69;;;2.90
70389;BMP280;58659;49.050;8.530;2022-12-07T04:34:52;99689.63;;;2.96
70389;BMP280;58659;49.050;8.530;2022-12-07T04:37:17;99692.22;;;2.96
70389;BMP280;58659;49.050;8.530;2022-12-07T04:39:43;99684.75;;;2.95
70389;BMP280;58659;49.050;8.530;2022-12-07T04:42:10;99699.03;;;2.92
70389;BMP280;58659;49.050;8.530;2022-12-07T04:44:36;99697.81;;;2.98
70389;BMP280;58659;49.050;8.530;2022-12-07T04:47:01;99705.41;;;2.95
70389;BMP280;58659;49.050;8.530;2022-12-07T04:49:26;99706.81;;;3.01
70389;BMP280;58659;49.050;8.530;2022-12-07T04:51:52;99713.38;;;3.07
70389;BMP280;58659;49.050;8.530;2022-12-07T04:54:18;99703.34;;;3.06
70389;BMP280;58659;49.050;8.530;2022-12-07T04:56:43;99721.13;;;3.07
70389;BMP280;58659;49.050;8.530;2022-12-07T04:59:10;99722.47;;;3.05
70389;BMP280;58659;49.050;8.530;2022-12-07T05:01:35;99731.28;;;3.04
70389;BMP280;58659;49.050;8.530;2022-12-07T05:04:01;99733.66;;;3.00
70389;BMP280;58659;49.050;8.530;2022-12-07T05:06:26;99732.63;;;3.01
70389;BMP280;58659;49.050;8.530;2022-12-07T05:08:51;99726.69;;;3.01
70389;BMP280;58659;49.050;8.530;2022-12-07T05:11:17;99725.63;;;3.02
70389;BMP280;58659;49.050;8.530;2022-12-07T05:14:03;99728.22;;;3.02
70389;BMP280;58659;49.050;8.530;2022-12-07T05:16:29;99734.31;;;3.06
70389;BMP280;58659;49.050;8.530;2022-12-07T05:18:54;99738.53;;;3.02
70389;BMP280;58659;49.050;8.530;2022-12-07T05:21:20;99737.59;;;2.97
70389;BMP280;58659;49.050;8.530;2022-12-07T05:23:45;99730.91;;;2.96
70389;BMP280;58659;49.050;8.530;2022-12-07T05:26:10;99743.69;;;3.02
70389;BMP280;58659;49.050;8.530;2022-12-07T05:28:36;99737.94;;;3.05
70389;BMP280;58659;49.050;8.530;2022-12-07T05:31:01;99737.78;;;3.01
70389;BMP280;58659;49.050;8.530;2022-12-07T05:33:27;99733.38;;;3.02
70389;BMP280;58659;49.050;8.530;2022-12-07T05:35:52;99740.63;;;3.00
70389;BMP280;58659;49.050;8.530;2022-12-07T05:38:17;99734.31;;;3.06
70389;BMP280;58659;49.050;8.530;2022-12-07T05:40:43;99738.53;;;3.02
70389;BMP280;58659;49.050;8.530;2022-12-07T05:43:08;99746.44;;;3.05
70389;BMP280;58659;49.050;8.530;2022-12-07T05:45:33;99746.00;;;3.03
70389;BMP280;58659;49.050;8.530;2022-12-07T05:47:59;99741.59;;;3.04
70389;BMP280;58659;49.050;8.530;2022-12-07T05:50:24;99745.59;;;3.10
70389;BMP280;58659;49.050;8.530;2022-12-07T05:52:50;99732.91;;;3.00
70389;BMP280;58659;49.050;8.530;2022-12-07T05:55:15;99754.38;;;3.09
70389;BMP280;58659;49.050;8.530;2022-12-07T05:57:40;99756.47;;;3.07
70389;BMP280;58659;49.050;8.530;2022-12-07T06:00:25;99766.22;;;3.10
70389;BMP280;58659;49.050;8.530;2022-12-07T06:02:51;99771.97;;;3.07
70389;BMP280;58659;49.050;8.530;2022-12-07T06:05:16;99768.91;;;3.05
70389;BMP280;58659;49.050;8.530;2022-12-07T06:07:41;99773.13;;;3.01
70389;BMP280;58659;49.050;8.530;2022-12-07T06:10:07;99771.31;;;3.01
70389;BMP280;58659;49.050;8.530;2022-12-07T06:12:32;99768.56;;;2.97
70389;BMP280;58659;49.050;8.530;2022-12-07T06:15:03;99781.47;;;2.97
70389;BMP280;58659;49.050;8.530;2022-12-07T06:17:28;99783.75;;;2.99
70389;BMP280;58659;49.050;8.530;2022-12-07T06:19:54;99785.41;;;2.95
70389;BMP280;58659;49.050;8.530;2022-12-07T06:22:19;99784.50;;;3.00
70389;BMP280;58659;49.050;8.530;2022-12-07T06:24:45;99798.38;;;3.04
70389;BMP280;58659;49.050;8.530;2022-12-07T06:27:10;99810.19;;;3.05
70389;BMP280;58659;49.050;8.530;2022-12-07T06:29:36;99812.13;;;2.99
70389;BMP280;58659;49.050;8.530;2022-12-07T06:32:02;99817.88;;;2.96
70389;BMP280;58659;49.050;8.530;2022-12-07T06:34:27;99815.72;;;2.89
70389;BMP280;58659;49.050;8.530;2022-12-07T06:36:53;99830.00;;;3.09
70389;BMP280;58659;49.050;8.530;2022-12-07T06:39:24;99849.38;;;3.07
70389;BMP280;58659;49.050;8.530;2022-12-07T06:41:50;99848.47;;;3.03
70389;BMP280;58659;49.050;8.530;2022-12-07T06:44:20;99861.66;;;3.01
70389;BMP280;58659;49.050;8.530;2022-12-07T06:46:46;99866.53;;;3.03
70389;BMP280;58659;49.050;8.530;2022-12-07T06:49:12;99860.72;;;2.97
70389;BMP280;58659;49.050;8.530;2022-12-07T06:51:37;99869.66;;;3.00
70389;BMP280;58659;49.050;8.530;2022-12-07T06:54:10;99873.78;;;3.01
70389;BMP280;58659;49.050;8.530;2022-12-07T06:56:36;99885.75;;;2.96
70389;BMP280;58659;49.050;8.530;2022-12-07T06:59:02;99883.94;;;2.97
70389;BMP280;58659;49.050;8.530;2022-12-07T07:01:28;99880.75;;;3.00
70389;BMP280;58659;49.050;8.530;2022-12-07T07:03:53;99884.59;;;3.03
70389;BMP280;58659;49.050;8.530;2022-12-07T07:06:18;99881.25;;;3.02
70389;BMP280;58659;49.050;8.530;2022-12-07T07:08:44;99875.41;;;2.96
70389;BMP280;58659;49.050;8.530;2022-12-07T07:11:11;99886.97;;;2.99
70389;BMP280;58659;49.050;8.530;2022-12-07T07:13:37;99884.09;;;3.01
70389;BMP280;58659;49.050;8.530;2022-12-07T07:16:02;99880.59;;;2.96
70389;BMP280;58659;49.050;8.530;2022-12-07T07:18:28;99888.38;;;3.05
70389;BMP280;58659;49.050;8.530;2022-12-07T07:20:54;99884.19;;;3.09
70389;BMP280;58659;49.050;8.530;2022-12-07T07:23:20;99886.13;;;3.04
70389;BMP280;58659;49.050;8.530;2022-12-07T07:25:46;99897.94;;;3.05
70389;BMP280;58659;49.050;8.530;2022-12-07T07:28:12;99905.41;;;3.06
70389;BMP280;58659;49.050;8.530;2022-12-07T07:30:37;99913.03;;;3.11
70389;BMP280;58659;49.050;8.530;2022-12-07T07:33:03;99914.56;;;3.12
70389;BMP280;58659;49.050;8.530;2022-12-07T07:35:30;99909.25;;;3.09
70389;BMP280;58659;49.050;8.530;2022-12-07T07:37:56;99906.94;;;3.07
70389;BMP280;58659;49.050;8.530;2022-12-07T07:40:21;99914.19;;;3.05
70389;BMP280;58659;49.050;8.530;2022-12-07T07:42:48;99921.84;;;3.10
70389;BMP280;58659;49.050;8.530;2022-12-07T07:45:14;99927.47;;;3.12
70389;BMP280;58659;49.050;8.530;2022-12-07T07:47:39;99921.53;;;3.12
70389;BMP280;58659;49.050;8.530;2022-12-07T07:50:05;99928.63;;;3.06
70389;BMP280;58659;49.050;8.530;2022-12-07T07:52:31;99932.56;;;3.04
70389;BMP280;58659;49.050;8.530;2022-12-07T07:54:56;99926.81;;;3.07
70389;BMP280;58659;49.050;8.530;2022-12-07T07:57:22;99940.22;;;3.09
70389;BMP280;58659;49.050;8.530;2022-12-07T07:59:47;99945.25;;;3.14
70389;BMP280;58659;49.050;8.530;2022-12-07T08:02:17;99938.47;;;3.18
70389;BMP280;58659;49.050;8.530;2022-12-07T08:04:43;99957.00;;;3.20
70389;BMP280;58659;49.050;8.530;2022-12-07T08:07:09;99952.91;;;3.19
70389;BMP280;58659;49.050;8.530;2022-12-07T08:09:34;99956.38;;;3.23
70389;BMP280;58659;49.050;8.530;2022-12-07T08:12:00;99968.44;;;3.27
70389;BMP280;58659;49.050;8.530;2022-12-07T08:14:25;99968.88;;;3.21
70389;BMP280;58659;49.050;8.530;2022-12-07T08:16:52;99980.09;;;3.25
70389;BMP280;58659;49.050;8.530;2022-12-07T08:19:18;99975.22;;;3.23
70389;BMP280;58659;49.050;8.530;2022-12-07T08:21:43;99982.78;;;3.33
70389;BMP280;58659;49.050;8.530;2022-12-07T08:24:08;99987.06;;;3.38
70389;BMP280;58659;49.050;8.530;2022-12-07T08:26:34;99998.44;;;3.37
70389;BMP280;58659;49.050;8.530;2022-12-07T08:28:59;99990.47;;;3.47
70389;BMP280;58659;49.050;8.530;2022-12-07T08:31:24;100008.38;;;3.44
70389;BMP280;58659;49.050;8.530;2022-12-07T08:33:50;100006.69;;;3.39
70389;BMP280;58659;49.050;8.530;2022-12-07T08:36:16;100010.59;;;3.36
70389;BMP280;58659;49.050;8.530;2022-12-07T08:38:42;100005.91;;;3.38
70389;BMP280;58659;49.050;8.530;2022-12-07T08:41:08;100004.56;;;3.41
70389;BMP280;58659;49.050;8.530;2022-12-07T08:43:34;100013.72;;;3.47
70389;BMP280;58659;49.050;8.530;2022-12-07T08:48:51;100026.50;;;3.52
70389;BMP280;58659;49.050;8.530;2022-12-07T08:51:18;100024.41;;;3.54
70389;BMP280;58659;49.050;8.530;2022-12-07T08:53:44;100031.88;;;3.56
70389;BMP280;58659;49.050;8.530;2022-12-07T08:56:09;100029.84;;;3.53
70389;BMP280;58659;49.050;8.530;2022-12-07T08:58:35;100021.34;;;3.52
70389;BMP280;58659;49.050;8.530;2022-12-07T09:01:01;100020.50;;;3.57
70389;BMP280;58659;49.050;8.530;2022-12-07T09:03:26;100031.09;;;3.55
70389;BMP280;58659;49.050;8.530;2022-12-07T09:05:53;100014.31;;;3.44
70389;BMP280;58659;49.050;8.530;2022-12-07T09:08:19;100016.75;;;3.49
70389;BMP280;58659;49.050;8.530;2022-12-07T09:10:44;100014.25;;;3.58
70389;BMP280;58659;49.050;8.530;2022-12-07T09:13:10;100022.09;;;3.66
70389;BMP280;58659;49.050;8.530;2022-12-07T09:15:36;100025.72;;;3.65
70389;BMP280;58659;49.050;8.530;2022-12-07T09:18:01;100020.28;;;3.75
70389;BMP280;58659;49.050;8.530;2022-12-07T09:20:26;100029.94;;;3.83
70389;BMP280;58659;49.050;8.530;2022-12-07T09:22:51;100030.63;;;3.75
70389;BMP280;58659;49.050;8.530;2022-12-07T09:25:17;100030.63;;;3.75
70389;BMP280;58659;49.050;8.530;2022-12-07T09:27:42;100020.53;;;3.65
70389;BMP280;58659;49.050;8.530;2022-12-07T09:30:08;100024.56;;;3.71
70389;BMP280;58659;49.050;8.530;2022-12-07T09:32:33;100027.66;;;3.82
70389;BMP280;58659;49.050;8.530;2022-12-07T09:34:58;100023.84;;;3.79
70389;BMP280;58659;49.050;8.530;2022-12-07T09:37:24;100029.38;;;3.87
70389;BMP280;58659;49.050;8.530;2022-12-07T09:39:49;100035.00;;;3.89
70389;BMP280;58659;49.050;8.530;2022-12-07T09:42:28;100037.31;;;3.76
70389;BMP280;58659;49.050;8.530;2022-12-07T09:44:55;100029.78;;;3.80
70389;BMP280;58659;49.050;8.530;2022-12-07T09:47:20;100026.59;;;3.83
70389;BMP280;58659;49.050;8.530;2022-12-07T09:49:46;100023.88;;;3.88
70389;BMP280;58659;49.050;8.530;2022-12-07T09:52:21;100035.22;;;4.01
70389;BMP280;58659;49.050;8.530;2022-12-07T09:54:50;100028.16;;;4.15
70389;BMP280;58659;49.050;8.530;2022-12-07T09:57:17;100027.63;;;4.26
70389;BMP280;58659;49.050;8.530;2022-12-07T09:59:43;100038.59;;;4.32
70389;BMP280;58659;49.050;8.530;2022-12-07T10:04:48;100040.94;;;4.20
70389;BMP280;58659;49.050;8.530;2022-12-07T10:07:14;100029.09;;;4.19
70389;BMP280;58659;49.050;8.530;2022-12-07T10:09:39;100026.66;;;4.14
70389;BMP280;58659;49.050;8.530;2022-12-07T10:12:08;100036.34;;;4.17
70389;BMP280;58659;49.050;8.530;2022-12-07T10:14:37;100033.69;;;4.22
70389;BMP280;58659;49.050;8.530;2022-12-07T10:17:25;100034.53;;;4.17
70389;BMP280;58659;49.050;8.530;2022-12-07T10:19:50;100027.44;;;4.23
70389;BMP280;58659;49.050;8.530;2022-12-07T10:22:16;100023.78;;;4.24
70389;BMP280;58659;49.050;8.530;2022-12-07T10:24:43;100026.97;;;4.21
70389;BMP280;58659;49.050;8.530;2022-12-07T10:29:48;100032.03;;;4.26
70389;BMP280;58659;49.050;8.530;2022-12-07T10:34:40;100028.53;;;4.31
70389;BMP280;58659;49.050;8.530;2022-12-07T10:37:26;100027.75;;;4.21
70389;BMP280;58659;49.050;8.530;2022-12-07T10:39:56;100026.97;;;4.21
70389;BMP280;58659;49.050;8.530;2022-12-07T10:42:23;100028.50;;;4.22
70389;BMP280;58659;49.050;8.530;2022-12-07T10:44:50;100021.75;;;4.35
70389;BMP280;58659;49.050;8.530;2022-12-07T10:47:25;100021.28;;;4.41
70389;BMP280;58659;49.050;8.530;2022-12-07T10:52:50;100007.91;;;4.48
70389;BMP280;58659;49.050;8.530;2022-12-07T10:55:25;100010.22;;;4.49
70389;BMP280;58659;49.050;8.530;2022-12-07T11:01:05;100004.81;;;4.37
70389;BMP280;58659;49.050;8.530;2022-12-07T11:06:35;100006.69;;;4.45
70389;BMP280;58659;49.050;8.530;2022-12-07T11:14:28;99998.00;;;4.41
70389;BMP280;58659;49.050;8.530;2022-12-07T11:17:00;99988.13;;;4.43
70389;BMP280;58659;49.050;8.530;2022-12-07T11:22:43;99966.53;;;4.56
70389;BMP280;58659;49.050;8.530;2022-12-07T11:30:42;99964.44;;;4.58
70389;BMP280;58659;49.050;8.530;2022-12-07T11:35:49;99979.06;;;4.71
70389;BMP280;58659;49.050;8.530;2022-12-07T11:38:21;99983.19;;;4.72
70389;BMP280;58659;49.050;8.530;2022-12-07T11:40:53;99981.97;;;4.79
70389;BMP280;58659;49.050;8.530;2022-12-07T11:43:27;99980.28;;;4.65
70389;BMP280;58659;49.050;8.530;2022-12-07T11:46:14;99968.06;;;4.57
70389;BMP280;58659;49.050;8.530;2022-12-07T11:48:50;99963.31;;;4.42
70389;BMP280;58659;49.050;8.530;2022-12-07T11:51:19;99966.72;;;4.51
70389;BMP280;58659;49.050;8.530;2022-12-07T11:53:53;99958.78;;;4.56
70389;BMP280;58659;49.050;8.530;2022-12-07T11:56:22;99954.09;;;4.58
70389;BMP280;58659;49.050;8.530;2022-12-07T11:58:57;99950.41;;;4.59
70389;BMP280;58659;49.050;8.530;2022-12-07T12:01:44;99941.94;;;4.67
70389;BMP280;58659;49.050;8.530;2022-12-07T12:14:15;99932.53;;;5.06
70389;BMP280;58659;49.050;8.530;2022-12-07T12:22:18;99930.09;;;5.18
70389;BMP280;58659;49.050;8.530;2022-12-07T12:24:47;99929.94;;;5.06
70389;BMP280;58659;49.050;8.530;2022-12-07T12:27:25;99932.97;;;4.99
70389;BMP280;58659;49.050;8.530;2022-12-07T12:29:54;99923.81;;;4.93
70389;BMP280;58659;49.050;8.530;2022-12-07T12:32:22;99916.34;;;4.92
70389;BMP280;58659;49.050;8.530;2022-12-07T12:37:46;99915.28;;;4.93
70389;BMP280;58659;49.050;8.530;2022-12-07T12:45:22;99900.06;;;4.83
70389;BMP280;58659;49.050;8.530;2022-12-07T12:48:27;99903.59;;;4.87
70389;BMP280;58659;49.050;8.530;2022-12-07T12:54:11;99899.75;;;4.93
70389;BMP280;58659;49.050;8.530;2022-12-07T12:56:44;99917.25;;;4.96
70389;BMP280;58659;49.050;8.530;2022-12-07T12:59:26;99905.25;;;4.83
70389;BMP280;58659;49.050;8.530;2022-12-07T13:02:29;99902.81;;;4.86
70389;BMP280;58659;49.050;8.530;2022-12-07T13:20:55;99875.56;;;4.71
70389;BMP280;58659;49.050;8.530;2022-12-07T13:28:45;99867.94;;;4.66
70389;BMP280;58659;49.050;8.530;2022-12-07T13:33:43;99862.19;;;4.69
70389;BMP280;58659;49.050;8.530;2022-12-07T13:36:17;99853.47;;;4.74
70389;BMP280;58659;49.050;8.530;2022-12-07T13:38:50;99850.31;;;4.68
70389;BMP280;58659;49.050;8.530;2022-12-07T13:41:17;99850.59;;;4.58
70389;BMP280;58659;49.050;8.530;2022-12-07T13:46:23;99852.72;;;4.73
70389;BMP280;58659;49.050;8.530;2022-12-07T13:48:50;99853.34;;;4.70
70389;BMP280;58659;49.050;8.530;2022-12-07T13:51:24;99848.16;;;4.62
70389;BMP280;58659;49.050;8.530;2022-12-07T13:54:01;99853.19;;;4.58
70389;BMP280;58659;49.050;8.530;2022-12-07T13:56:32;99849.06;;;4.57
70389;BMP280;58659;49.050;8.530;2022-12-07T13:58:58;99847.25;;;4.66
70389;BMP280;58659;49.050;8.530;2022-12-07T14:01:24;99843.91;;;4.57
70389;BMP280;58659;49.050;8.530;2022-12-07T14:03:50;99842.97;;;4.53
70389;BMP280;58659;49.050;8.530;2022-12-07T14:06:26;99826.84;;;4.56
70389;BMP280;58659;49.050;8.530;2022-12-07T14:09:08;99828.50;;;4.61
70389;BMP280;58659;49.050;8.530;2022-12-07T14:11:34;99839.03;;;4.64
70389;BMP280;58659;49.050;8.530;2022-12-07T14:14:01;99838.72;;;4.57
70389;BMP280;58659;49.050;8.530;2022-12-07T14:18:58;99850.75;;;4.53
70389;BMP280;58659;49.050;8.530;2022-12-07T14:21:26;99842.84;;;4.50
70389;BMP280;58659;49.050;8.530;2022-12-07T14:24:18;99847.72;;;4.51
70389;BMP280;58659;49.050;8.530;2022-12-07T14:26:47;99849.34;;;4.47
70389;BMP280;58659;49.050;8.530;2022-12-07T14:31:51;99838.72;;;4.40
70389;BMP280;58659;49.050;8.530;2022-12-07T14:34:19;99842.84;;;4.50
70389;BMP280;58659;49.050;8.530;2022-12-07T14:36:45;99849.69;;;4.46
70389;BMP280;58659;49.050;8.530;2022-12-07T14:39:10;99847.81;;;4.38
70389;BMP280;58659;49.050;8.530;2022-12-07T14:41:36;99835.81;;;4.42
70389;BMP280;58659;49.050;8.530;2022-12-07T14:44:22;99849.53;;;4.34
70389;BMP280;58659;49.050;8.530;2022-12-07T14:46:49;99862.00;;;4.40
70389;BMP280;58659;49.050;8.530;2022-12-07T14:49:15;99845.88;;;4.35
70389;BMP280;58659;49.050;8.530;2022-12-07T14:51:41;99847.06;;;4.37
70389;BMP280;58659;49.050;8.530;2022-12-07T14:54:14;99858.94;;;4.38
70389;BMP280;58659;49.050;8.530;2022-12-07T14:56:40;99852.53;;;4.36
70389;BMP280;58659;49.050;8.530;2022-12-07T14:59:07;99853.63;;;4.43
70389;BMP280;58659;49.050;8.530;2022-12-07T15:01:33;99845.84;;;4.43
70389;BMP280;58659;49.050;8.530;2022-12-07T15:03:59;99850.72;;;4.45
70389;BMP280;58659;49.050;8.530;2022-12-07T15:06:24;99850.41;;;4.38
70389;BMP280;58659;49.050;8.530;2022-12-07T15:08:49;99849.34;;;4.39
70389;BMP280;58659;49.050;8.530;2022-12-07T15:11:16;99853.63;;;4.35
70389;BMP280;58659;49.050;8.530;2022-12-07T15:13:42;99841.59;;;4.39
70389;BMP280;58659;49.050;8.530;2022-12-07T15:16:26;99850.28;;;4.51
70389;BMP280;58659;49.050;8.530;2022-12-07T15:18:51;99852.09;;;4.42
70389;BMP280;58659;49.050;8.530;2022-12-07T15:21:16;99849.69;;;4.46
70389;BMP280;58659;49.050;8.530;2022-12-07T15:23:42;99854.38;;;4.35
70389;BMP280;58659;49.050;8.530;2022-12-07T15:26:09;99851.78;;;4.35
70389;BMP280;58659;49.050;8.530;2022-12-07T15:28:35;99844.47;;;4.28
70389;BMP280;58659;49.050;8.530;2022-12-07T15:31:00;99839.84;;;4.17
70389;BMP280;58659;49.050;8.530;2022-12-07T15:33:25;99827.53;;;4.05
70389;BMP280;58659;49.050;8.530;2022-12-07T15:35:51;99829.31;;;3.96
70389;BMP280;58659;49.050;8.530;2022-12-07T15:38:16;99814.88;;;3.87
70389;BMP280;58659;49.050;8.530;2022-12-07T15:40:41;99814.41;;;3.84
70389;BMP280;58659;49.050;8.530;2022-12-07T15:43:09;99817.25;;;3.74
70389;BMP280;58659;49.050;8.530;2022-12-07T15:45:55;99818.75;;;3.75
70389;BMP280;58659;49.050;8.530;2022-12-07T15:48:20;99814.06;;;3.69
70389;BMP280;58659;49.050;8.530;2022-12-07T15:50:46;99801.25;;;3.64
70389;BMP280;58659;49.050;8.530;2022-12-07T15:53:11;99811.59;;;3.64
70389;BMP280;58659;49.050;8.530;2022-12-07T15:55:39;99806.09;;;3.57
70389;BMP280;58659;49.050;8.530;2022-12-07T15:58:05;99799.69;;;3.54
70389;BMP280;58659;49.050;8.530;2022-12-07T16:00:30;99789.31;;;3.46
70389;BMP280;58659;49.050;8.530;2022-12-07T16:02:55;99775.63;;;3.36
70389;BMP280;58659;49.050;8.530;2022-12-07T16:05:20;99774.69;;;3.32
70389;BMP280;58659;49.050;8.530;2022-12-07T16:07:46;99759.63;;;3.26
70389;BMP280;58659;49.050;8.530;2022-12-07T16:10:12;99759.78;;;3.21
70389;BMP280;58659;49.050;8.530;2022-12-07T16:12:37;99753.97;;;3.15
70389;BMP280;58659;49.050;8.530;2022-12-07T16:15:03;99740.88;;;3.12
70389;BMP280;58659;49.050;8.530;2022-12-07T16:17:29;99740.22;;;3.06
70389;BMP280;58659;49.050;8.530;2022-12-07T16:19:54;99732.00;;;3.04
70389;BMP280;58659;49.050;8.530;2022-12-07T16:22:19;99730.78;;;3.02
70389;BMP280;58659;49.050;8.530;2022-12-07T16:24:45;99720.00;;;3.00
70389;BMP280;58659;49.050;8.530;2022-12-07T16:27:10;99712.75;;;3.02